createdAt,value
2023-11-18T00:00:13.469Z,27.63
2023-11-18T00:02:44.192Z,31.00
2023-11-18T00:05:14.943Z,26.35
2023-11-18T00:07:43.137Z,25.83
2023-11-18T00:10:12.091Z,27.65
2023-11-18T00:12:42.868Z,23.50
2023-11-18T00:15:13.197Z,27.63
2023-11-18T00:17:41.474Z,28.33
2023-11-18T00:20:13.577Z,27.88
2023-11-18T00:22:43.610Z,32.63
2023-11-18T00:25:12.124Z,24.70
2023-11-18T00:27:40.129Z,22.55
2023-11-18T00:30:11.971Z,32.25
2023-11-18T00:32:40.160Z,27.20
2023-11-18T00:35:09.685Z,25.17
2023-11-18T00:37:37.575Z,24.27
2023-11-18T00:40:09.116Z,21.98
2023-11-18T00:42:37.220Z,21.42
2023-11-18T00:45:06.119Z,28.40
2023-11-18T00:47:34.134Z,23.80
2023-11-18T00:50:03.352Z,21.08
2023-11-18T00:52:31.314Z,28.10
2023-11-18T00:54:59.220Z,22.67
2023-11-18T00:57:28.522Z,31.65
2023-11-18T00:59:58.281Z,27.67
2023-11-18T01:02:26.262Z,23.73
2023-11-18T01:04:54.197Z,28.55
2023-11-18T01:07:22.002Z,23.20
2023-11-18T01:09:51.158Z,28.27
2023-11-18T01:12:19.008Z,28.20
2023-11-18T01:14:48.191Z,21.50
2023-11-18T01:17:16.371Z,23.35
2023-11-18T01:19:45.061Z,27.65
2023-11-18T01:22:12.965Z,24.92
2023-11-18T01:24:40.951Z,22.58
2023-11-18T01:27:10.854Z,21.85
2023-11-18T01:29:39.933Z,32.53
2023-11-18T01:32:10.922Z,20.60
2023-11-18T01:34:40.312Z,22.05
2023-11-18T01:37:08.666Z,20.63
2023-11-18T01:39:37.002Z,28.73
2023-11-18T01:42:05.258Z,22.63
2023-11-18T01:44:34.986Z,26.88
2023-11-18T01:47:07.073Z,21.48
2023-11-18T01:49:41.054Z,23.23
2023-11-18T01:52:09.867Z,22.92
2023-11-18T01:54:40.410Z,36.20
2023-11-18T01:57:10.589Z,25.63
2023-11-18T01:59:39.468Z,23.02
2023-11-18T02:02:07.504Z,26.42
2023-11-18T02:04:38.094Z,23.25
2023-11-18T02:07:10.288Z,25.58
2023-11-18T02:09:38.745Z,22.80
2023-11-18T02:12:18.368Z,32.58
2023-11-18T02:14:47.228Z,21.45
2023-11-18T02:17:19.369Z,22.92
2023-11-18T02:19:49.233Z,21.83
2023-11-18T02:22:17.645Z,20.80
2023-11-18T02:24:45.439Z,28.05
2023-11-18T02:27:15.243Z,27.52
2023-11-18T02:29:46.406Z,22.63
2023-11-18T02:32:24.322Z,24.95
2023-11-18T02:34:59.608Z,23.20
2023-11-18T02:37:28.267Z,20.98
2023-11-18T02:40:09.379Z,20.65
2023-11-18T02:42:40.362Z,26.80
2023-11-18T02:45:13.487Z,21.67
2023-11-18T02:47:41.517Z,21.63
2023-11-18T02:50:12.014Z,25.77
2023-11-18T02:52:40.052Z,22.45
2023-11-18T02:55:09.047Z,22.10
2023-11-18T02:57:38.665Z,21.45
2023-11-18T03:00:13.023Z,24.85
2023-11-18T03:02:41.420Z,23.65
2023-11-18T03:05:12.810Z,26.27
2023-11-18T03:07:40.810Z,24.50
2023-11-18T03:10:12.507Z,21.88
2023-11-18T03:12:41.922Z,30.23
2023-11-18T03:15:12.862Z,25.02
2023-11-18T03:17:40.970Z,26.95
2023-11-18T03:20:10.826Z,26.75
2023-11-18T03:22:38.766Z,27.80
2023-11-18T03:25:08.843Z,28.88
2023-11-18T03:27:36.667Z,28.38
2023-11-18T03:30:07.846Z,20.63
2023-11-18T03:32:36.305Z,25.70
2023-11-18T03:35:05.591Z,32.03
2023-11-18T03:37:33.487Z,26.17
2023-11-18T03:40:01.323Z,25.88
2023-11-18T03:42:30.228Z,26.13
2023-11-18T03:45:00.891Z,30.08
2023-11-18T03:47:31.430Z,24.83
2023-11-18T03:49:59.640Z,29.85
2023-11-18T03:52:28.773Z,27.85
2023-11-18T03:54:57.193Z,24.73
2023-11-18T03:57:25.566Z,27.88
2023-11-18T03:59:53.397Z,31.48
2023-11-18T04:02:21.305Z,30.95
2023-11-18T04:04:51.002Z,37.55
2023-11-18T04:07:18.870Z,30.27
2023-11-18T04:09:46.667Z,36.45
2023-11-18T04:12:16.097Z,29.67
2023-11-18T04:14:43.925Z,29.35
2023-11-18T04:17:10.937Z,34.10
2023-11-18T04:19:40.242Z,27.45
2023-11-18T04:22:10.615Z,27.90
2023-11-18T04:24:38.460Z,29.30
2023-11-18T04:27:06.323Z,35.15
2023-11-18T04:29:34.240Z,37.17
2023-11-18T04:32:02.903Z,33.13
2023-11-18T04:34:30.820Z,33.30
2023-11-18T04:36:58.674Z,27.88
2023-11-18T04:39:29.365Z,26.00
2023-11-18T04:41:57.704Z,30.92
2023-11-18T04:44:26.157Z,27.02
2023-11-18T04:46:53.989Z,38.15
2023-11-18T04:49:21.945Z,31.40
2023-11-18T04:51:49.867Z,31.17
2023-11-18T04:54:17.699Z,29.83
2023-11-18T04:56:47.286Z,28.98
2023-11-18T04:59:15.106Z,26.42
2023-11-18T05:01:43.233Z,23.77
2023-11-18T05:04:12.077Z,32.25
2023-11-18T05:06:39.962Z,35.53
2023-11-18T05:09:08.865Z,28.67
2023-11-18T05:11:37.023Z,30.15
2023-11-18T05:14:08.212Z,27.33
2023-11-18T05:16:36.260Z,32.35
2023-11-18T05:19:04.200Z,30.35
2023-11-18T05:21:31.980Z,28.40
2023-11-18T05:23:59.778Z,30.10
2023-11-18T05:26:28.012Z,25.30
2023-11-18T05:28:56.010Z,30.38
2023-11-18T05:31:25.308Z,30.33
2023-11-18T05:33:59.327Z,29.58
2023-11-18T05:36:29.250Z,32.28
2023-11-18T05:38:57.281Z,29.02
2023-11-18T05:41:28.926Z,32.85
2023-11-18T05:43:58.758Z,37.00
2023-11-18T05:46:31.234Z,30.55
2023-11-18T05:49:01.152Z,33.45
2023-11-18T05:51:30.389Z,33.72
2023-11-18T05:54:00.748Z,32.58
2023-11-18T05:56:28.580Z,30.65
2023-11-18T05:58:56.794Z,31.70
2023-11-18T06:01:25.372Z,32.95
2023-11-18T06:03:54.922Z,36.22
2023-11-18T06:06:24.784Z,32.15
2023-11-18T06:08:54.453Z,29.40
2023-11-18T06:11:24.413Z,33.15
2023-11-18T06:13:54.028Z,35.70
2023-11-18T06:16:23.251Z,30.80
2023-11-18T06:18:52.743Z,32.20
2023-11-18T06:21:25.809Z,28.92
2023-11-18T06:23:56.112Z,28.05
2023-11-18T06:26:25.646Z,36.45
2023-11-18T06:28:53.658Z,35.35
2023-11-18T06:31:21.751Z,31.95
2023-11-18T06:33:50.477Z,26.40
2023-11-18T06:36:24.615Z,32.58
2023-11-18T06:38:53.665Z,34.65
2023-11-18T06:41:24.399Z,29.23
2023-11-18T06:44:02.147Z,27.60
2023-11-18T06:46:35.002Z,25.10
2023-11-18T06:49:05.262Z,30.90
2023-11-18T06:51:38.895Z,28.55
2023-11-18T06:54:10.458Z,24.48
2023-11-18T06:56:40.261Z,33.20
2023-11-18T06:59:09.108Z,31.30
2023-11-18T07:01:37.567Z,26.85
2023-11-18T07:04:09.841Z,34.08
2023-11-18T07:06:40.258Z,25.30
2023-11-18T07:09:14.384Z,24.25
2023-11-18T07:11:43.106Z,31.30
2023-11-18T07:14:11.380Z,28.58
2023-11-18T07:16:40.647Z,29.65
2023-11-18T07:19:08.790Z,26.30
2023-11-18T07:21:36.977Z,25.77
2023-11-18T07:24:07.858Z,31.13
2023-11-18T07:26:35.687Z,24.45
2023-11-18T07:29:03.591Z,24.35
2023-11-18T07:31:31.454Z,22.90
2023-11-18T07:33:59.285Z,18.17
2023-11-18T07:36:27.113Z,23.08
2023-11-18T07:38:56.344Z,20.63
2023-11-18T07:41:30.964Z,28.52
2023-11-18T07:44:01.789Z,19.38
2023-11-18T07:46:32.144Z,21.80
2023-11-18T07:49:02.783Z,21.50
2023-11-18T07:51:30.795Z,28.95
2023-11-18T07:53:59.746Z,20.50
2023-11-18T07:56:30.023Z,18.77
2023-11-18T07:58:59.831Z,25.52
2023-11-18T08:01:28.420Z,17.90
2023-11-18T08:03:57.587Z,18.75
2023-11-18T08:06:27.776Z,20.80
2023-11-18T08:08:58.881Z,16.73
2023-11-18T08:11:28.156Z,31.30
2023-11-18T08:13:56.029Z,14.15
2023-11-18T08:16:23.966Z,15.35
2023-11-18T08:18:51.808Z,18.00
2023-11-18T08:21:19.605Z,18.80
2023-11-18T08:23:47.463Z,16.67
2023-11-18T08:26:15.370Z,14.57
2023-11-18T08:28:44.588Z,18.90
2023-11-18T08:31:16.904Z,19.63
2023-11-18T08:33:47.685Z,19.85
2023-11-18T08:36:15.610Z,22.05
2023-11-18T08:38:45.362Z,17.67
2023-11-18T08:41:13.458Z,16.88
2023-11-18T08:43:42.218Z,17.42
2023-11-18T08:46:11.601Z,17.13
2023-11-18T08:48:39.844Z,18.92
2023-11-18T08:51:10.636Z,15.77
2023-11-18T08:53:42.425Z,15.63
2023-11-18T08:56:14.872Z,22.27
2023-11-18T08:58:46.045Z,13.98
2023-11-18T09:01:16.210Z,14.35
2023-11-18T09:03:53.953Z,19.85
2023-11-18T09:06:27.153Z,20.65
2023-11-18T09:08:59.419Z,17.88
2023-11-18T09:11:33.620Z,18.30
2023-11-18T09:16:39.622Z,19.17
2023-11-18T09:19:07.532Z,16.95
2023-11-18T09:21:37.531Z,12.32
2023-11-18T09:24:08.847Z,22.15
2023-11-18T09:26:36.853Z,17.30
2023-11-18T09:29:04.786Z,15.48
2023-11-18T09:31:34.779Z,13.98
2023-11-18T09:34:05.237Z,20.88
2023-11-18T09:36:34.797Z,13.07
2023-11-18T09:39:04.415Z,13.95
2023-11-18T09:41:34.629Z,18.63
2023-11-18T09:44:03.711Z,20.15
2023-11-18T09:46:34.529Z,14.00
2023-11-18T09:49:17.014Z,14.45
2023-11-18T09:51:48.121Z,17.95
2023-11-18T09:54:23.477Z,19.52
2023-11-18T09:56:58.582Z,17.85
2023-11-18T09:59:36.079Z,13.38
2023-11-18T10:02:06.291Z,9.95
2023-11-18T10:04:38.655Z,17.00
2023-11-18T10:07:08.259Z,13.90
2023-11-18T10:09:38.653Z,16.80
2023-11-18T10:12:07.557Z,11.95
2023-11-18T10:14:36.097Z,10.55
2023-11-18T10:17:07.905Z,13.50
2023-11-18T10:19:53.756Z,15.85
2023-11-18T10:22:25.374Z,7.72
2023-11-18T10:24:55.692Z,14.55
2023-11-18T10:27:27.353Z,11.85
2023-11-18T10:29:58.171Z,10.40
2023-11-18T10:32:29.006Z,11.10
2023-11-18T10:35:00.038Z,13.23
2023-11-18T10:37:32.483Z,12.27
2023-11-18T10:40:06.773Z,14.52
2023-11-18T10:42:34.822Z,10.18
2023-11-18T10:45:04.470Z,13.50
2023-11-18T10:47:36.661Z,9.20
2023-11-18T10:50:11.219Z,15.50
2023-11-18T10:52:42.526Z,10.10
2023-11-18T10:55:13.661Z,11.32
2023-11-18T10:57:43.696Z,20.23
2023-11-18T11:00:16.043Z,23.00
2023-11-18T11:02:44.813Z,12.30
2023-11-18T11:05:20.978Z,22.08
2023-11-18T11:07:51.381Z,10.23
2023-11-18T11:10:26.248Z,11.90
2023-11-18T11:12:58.538Z,9.88
2023-11-18T11:15:42.046Z,11.65
2023-11-18T11:18:24.610Z,10.75
2023-11-18T11:21:05.343Z,13.50
2023-11-18T11:23:45.260Z,12.48
2023-11-18T11:26:24.113Z,12.10
2023-11-18T11:28:58.371Z,13.18
2023-11-18T11:31:34.457Z,11.63
2023-11-18T11:34:08.375Z,15.25
2023-11-18T11:36:42.750Z,11.40
2023-11-18T11:39:18.188Z,7.93
2023-11-18T11:41:48.896Z,8.77
2023-11-18T11:44:17.070Z,12.77
2023-11-18T11:46:45.569Z,11.77
2023-11-18T11:49:21.902Z,10.57
2023-11-18T11:51:56.794Z,12.40
2023-11-18T11:54:30.373Z,5.20
2023-11-18T11:57:01.999Z,10.43
2023-11-18T11:59:57.367Z,7.13
2023-11-18T12:02:30.562Z,7.47
2023-11-18T12:05:00.357Z,6.97
2023-11-18T12:07:30.380Z,7.47
2023-11-18T12:09:58.831Z,7.88
2023-11-18T12:12:28.236Z,7.40
2023-11-18T12:14:58.801Z,6.43
2023-11-18T12:17:33.141Z,8.10
2023-11-18T12:20:06.887Z,11.20
2023-11-18T12:23:15.246Z,9.10
2023-11-18T12:25:43.659Z,5.97
2023-11-18T12:28:12.279Z,6.28
2023-11-18T12:30:45.021Z,4.13
2023-11-18T12:33:19.996Z,6.07
2023-11-18T12:36:36.366Z,7.15
2023-11-18T12:39:43.462Z,5.78
2023-11-18T12:42:36.081Z,11.05
2023-11-18T12:45:27.847Z,9.27
2023-11-18T12:47:59.354Z,4.70
2023-11-18T12:50:29.971Z,7.50
2023-11-18T12:52:58.661Z,7.45
2023-11-18T12:55:27.742Z,4.90
2023-11-18T12:57:56.943Z,7.88
2023-11-18T13:00:28.770Z,8.43
2023-11-18T13:02:59.263Z,2.80
2023-11-18T13:05:30.979Z,4.32
2023-11-18T13:08:00.506Z,3.72
2023-11-18T13:10:28.594Z,4.78
2023-11-18T13:12:59.138Z,14.13
2023-11-18T13:15:27.552Z,4.10
2023-11-18T13:18:03.831Z,3.00
2023-11-18T13:20:34.827Z,2.97
2023-11-18T13:23:09.662Z,3.47
2023-11-18T13:25:40.236Z,4.72
2023-11-18T13:28:11.961Z,5.07
2023-11-18T13:30:41.238Z,4.47
2023-11-18T13:33:09.902Z,7.50
2023-11-18T13:35:38.248Z,3.05
2023-11-18T13:38:06.932Z,4.32
2023-11-18T13:40:45.040Z,3.63
2023-11-18T13:43:14.469Z,4.68
2023-11-18T13:45:43.868Z,3.00
2023-11-18T13:48:14.786Z,2.28
2023-11-18T13:50:44.033Z,2.33
2023-11-18T13:53:13.746Z,2.72
2023-11-18T13:55:42.432Z,2.85
2023-11-18T13:58:11.794Z,2.75
2023-11-18T14:00:43.234Z,2.03
2023-11-18T14:03:13.235Z,2.78
2023-11-18T14:05:41.255Z,3.90
2023-11-18T14:08:11.555Z,2.85
2023-11-18T14:10:42.043Z,2.10
2023-11-18T14:13:13.999Z,1.55
2023-11-18T14:15:46.029Z,1.42
2023-11-18T14:18:15.413Z,1.60
2023-11-18T14:20:43.469Z,2.35
2023-11-18T14:23:12.583Z,2.65
2023-11-18T14:25:40.471Z,3.35
2023-11-18T14:28:09.717Z,1.88
2023-11-18T14:30:37.865Z,1.90
2023-11-18T14:33:08.152Z,2.08
2023-11-18T14:35:36.518Z,1.27
2023-11-18T14:38:04.889Z,1.95
2023-11-18T14:40:33.657Z,2.20
2023-11-18T14:43:01.803Z,2.67
2023-11-18T14:45:29.917Z,2.05
2023-11-18T14:47:57.844Z,2.45
2023-11-18T14:50:28.610Z,2.67
2023-11-18T14:53:01.310Z,1.35
2023-11-18T14:55:30.395Z,2.28
2023-11-18T14:57:58.447Z,1.98
2023-11-18T15:00:28.564Z,1.30
2023-11-18T15:02:59.953Z,2.83
2023-11-18T15:05:30.289Z,6.88
2023-11-18T15:08:00.371Z,2.97
2023-11-18T15:10:29.532Z,1.75
2023-11-18T15:12:59.756Z,1.67
2023-11-18T15:15:33.663Z,1.90
2023-11-18T15:18:06.181Z,1.85
2023-11-18T15:20:35.736Z,3.67
2023-11-18T15:23:03.990Z,2.08
2023-11-18T15:25:31.873Z,3.35
2023-11-18T15:28:00.714Z,2.42
2023-11-18T15:30:29.229Z,2.30
2023-11-18T15:32:59.821Z,1.10
2023-11-18T15:35:29.661Z,2.92
2023-11-18T15:37:58.909Z,2.90
2023-11-18T15:40:27.365Z,1.85
2023-11-18T15:42:58.774Z,7.28
2023-11-18T15:45:27.732Z,1.60
2023-11-18T15:47:55.712Z,2.10
2023-11-18T15:50:23.626Z,5.80
2023-11-18T15:52:53.262Z,1.60
2023-11-18T15:55:22.883Z,1.50
2023-11-18T15:57:53.878Z,2.05
2023-11-18T16:00:25.639Z,2.65
2023-11-18T16:02:58.434Z,1.90
2023-11-18T16:05:34.602Z,2.15
2023-11-18T16:08:03.511Z,2.47
2023-11-18T16:10:32.760Z,2.55
2023-11-18T16:13:01.701Z,2.42
2023-11-18T16:15:31.232Z,2.08
2023-11-18T16:18:00.584Z,3.05
2023-11-18T16:20:33.311Z,2.63
2023-11-18T16:23:04.086Z,4.03
2023-11-18T16:25:35.974Z,2.65
2023-11-18T16:28:05.326Z,6.00
2023-11-18T16:30:34.031Z,3.42
2023-11-18T16:33:04.608Z,3.88
2023-11-18T16:35:33.072Z,5.38
2023-11-18T16:38:02.338Z,4.63
2023-11-18T16:40:31.135Z,6.38
2023-11-18T16:43:01.248Z,5.25
2023-11-18T16:45:29.907Z,5.68
2023-11-18T16:47:57.927Z,6.95
2023-11-18T16:50:27.843Z,6.15
2023-11-18T16:52:56.782Z,6.55
2023-11-18T16:55:25.200Z,8.65
2023-11-18T16:57:54.734Z,8.90
2023-11-18T17:00:24.990Z,10.60
2023-11-18T17:02:56.985Z,10.30
2023-11-18T17:05:26.987Z,11.73
2023-11-18T17:07:55.560Z,10.40
2023-11-18T17:10:24.488Z,14.02
2023-11-18T17:12:52.986Z,13.13
2023-11-18T17:15:21.332Z,15.50
2023-11-18T17:17:54.825Z,17.25
2023-11-18T17:20:23.132Z,17.67
2023-11-18T17:22:52.685Z,10.95
2023-11-18T17:25:24.439Z,11.35
2023-11-18T17:27:54.330Z,10.00
2023-11-18T17:30:22.549Z,10.90
2023-11-18T17:32:53.180Z,10.82
2023-11-18T17:35:22.257Z,11.90
2023-11-18T17:37:50.578Z,11.85
2023-11-18T17:40:22.541Z,12.40
2023-11-18T17:42:54.360Z,12.88
2023-11-18T17:45:25.406Z,10.70
2023-11-18T17:47:55.022Z,12.02
2023-11-18T17:50:23.788Z,12.75
2023-11-18T17:52:52.393Z,10.85
2023-11-18T17:55:20.464Z,11.95
2023-11-18T17:57:48.609Z,12.85
2023-11-18T18:00:23.402Z,12.52
2023-11-18T18:02:52.791Z,9.38
2023-11-18T18:05:22.311Z,10.73
2023-11-18T18:07:50.123Z,10.98
2023-11-18T18:10:18.480Z,11.85
2023-11-18T18:12:48.036Z,15.10
2023-11-18T18:15:16.297Z,15.52
2023-11-18T18:17:44.499Z,12.23
2023-11-18T18:20:15.029Z,12.68
2023-11-18T18:22:44.787Z,10.88
2023-11-18T18:25:13.523Z,10.52
2023-11-18T18:27:42.105Z,11.50
2023-11-18T18:30:11.439Z,10.77
2023-11-18T18:32:39.568Z,14.43
2023-11-18T18:35:08.374Z,14.10
2023-11-18T18:37:36.290Z,12.50
2023-11-18T18:40:06.183Z,18.00
2023-11-18T18:42:34.312Z,14.00
2023-11-18T18:45:02.306Z,14.30
2023-11-18T18:47:30.896Z,17.35
2023-11-18T18:49:59.331Z,16.20
2023-11-18T18:52:27.252Z,14.90
2023-11-18T18:54:55.344Z,16.15
2023-11-18T18:57:25.599Z,14.88
2023-11-18T18:59:53.446Z,19.83
2023-11-18T19:02:21.485Z,19.75
2023-11-18T19:04:50.179Z,14.10
2023-11-18T19:07:19.596Z,15.15
2023-11-18T19:09:47.612Z,21.05
2023-11-18T19:12:15.447Z,16.13
2023-11-18T19:14:44.697Z,22.45
2023-11-18T19:17:14.684Z,17.98
2023-11-18T19:19:42.689Z,17.83
2023-11-18T19:22:10.498Z,15.20
2023-11-18T19:24:39.681Z,18.00
2023-11-18T19:27:12.119Z,15.63
2023-11-18T19:29:43.065Z,18.05
2023-11-18T19:32:13.735Z,20.48
2023-11-18T19:34:41.573Z,17.77
2023-11-18T19:37:12.050Z,16.15
2023-11-18T19:39:41.475Z,20.13
2023-11-18T19:42:10.022Z,18.20
2023-11-18T19:44:38.187Z,16.17
2023-11-18T19:47:08.142Z,19.63
2023-11-18T19:49:37.687Z,18.63
2023-11-18T19:52:08.118Z,19.45
2023-11-18T19:54:36.320Z,17.15
2023-11-18T19:57:05.004Z,22.50
2023-11-18T19:59:33.953Z,27.35
2023-11-18T20:02:02.208Z,17.38
2023-11-18T20:04:31.309Z,18.80
2023-11-18T20:07:00.685Z,16.70
2023-11-18T20:09:28.660Z,19.98
2023-11-18T20:12:04.692Z,32.45
2023-11-18T20:14:34.297Z,22.13
2023-11-18T20:17:02.332Z,26.52
2023-11-18T20:19:30.416Z,28.88
2023-11-18T20:21:58.293Z,20.17
2023-11-18T20:24:27.520Z,21.58
2023-11-18T20:26:55.302Z,22.80
2023-11-18T20:29:23.126Z,22.67
2023-11-18T20:31:51.015Z,32.13
2023-11-18T20:34:19.257Z,28.65
2023-11-18T20:36:47.825Z,21.75
2023-11-18T20:39:18.791Z,27.67
2023-11-18T20:41:49.551Z,27.88
2023-11-18T20:44:17.866Z,23.73
2023-11-18T20:46:46.745Z,20.90
2023-11-18T20:49:15.085Z,28.75
2023-11-18T20:51:42.889Z,24.25
2023-11-18T20:54:10.708Z,22.77
2023-11-18T20:56:38.669Z,21.80
2023-11-18T20:59:07.889Z,19.17
2023-11-18T21:01:35.686Z,20.10
2023-11-18T21:04:03.764Z,25.95
2023-11-18T21:06:32.088Z,23.40
2023-11-18T21:09:00.554Z,26.35
2023-11-18T21:11:28.575Z,24.48
2023-11-18T21:13:56.792Z,21.95
2023-11-18T21:16:26.026Z,23.63
2023-11-18T21:18:53.836Z,25.70
2023-11-18T21:21:22.841Z,23.35
2023-11-18T21:23:51.123Z,25.63
2023-11-18T21:26:21.079Z,21.65
2023-11-18T21:28:49.289Z,30.52
2023-11-18T21:31:18.017Z,22.77
2023-11-18T21:33:47.195Z,19.83
2023-11-18T21:36:15.393Z,21.48
2023-11-18T21:38:52.743Z,31.13
2023-11-18T21:41:20.888Z,26.95
2023-11-18T21:43:48.689Z,20.83
2023-11-18T21:46:16.471Z,27.67
2023-11-18T21:48:45.220Z,20.60
2023-11-18T21:51:14.822Z,32.00
2023-11-18T21:53:44.248Z,31.38
2023-11-18T21:56:12.112Z,27.10
2023-11-18T21:58:39.918Z,23.95
2023-11-18T22:01:07.953Z,26.48
2023-11-18T22:03:36.206Z,29.77
2023-11-18T22:06:04.132Z,24.60
2023-11-18T22:08:34.769Z,20.42
2023-11-18T22:11:02.716Z,23.10
2023-11-18T22:13:31.907Z,26.95
2023-11-18T22:16:00.046Z,26.33
2023-11-18T22:18:27.922Z,21.10
2023-11-18T22:20:56.596Z,27.15
2023-11-18T22:23:24.412Z,26.10
2023-11-18T22:25:53.529Z,19.35
2023-11-18T22:28:21.307Z,17.85
2023-11-18T22:30:49.117Z,16.05
2023-11-18T22:33:25.311Z,20.95
2023-11-18T22:35:55.061Z,21.05
2023-11-18T22:38:24.114Z,22.52
2023-11-18T22:40:53.368Z,17.88
2023-11-18T22:43:24.944Z,18.67
2023-11-18T22:45:52.896Z,18.30
2023-11-18T22:48:22.179Z,21.83
2023-11-18T22:50:50.197Z,27.60
2023-11-18T22:53:19.066Z,16.73
2023-11-18T22:55:48.678Z,23.80
2023-11-18T22:58:18.103Z,25.58
2023-11-18T23:00:52.136Z,25.20
2023-11-18T23:03:20.658Z,19.17
2023-11-18T23:05:49.085Z,18.83
2023-11-18T23:08:22.986Z,14.80
2023-11-18T23:10:52.285Z,23.70
2023-11-18T23:13:23.976Z,19.38
2023-11-18T23:15:56.711Z,21.05
2023-11-18T23:18:24.761Z,18.38
2023-11-18T23:20:52.577Z,21.67
2023-11-18T23:23:21.360Z,24.73
2023-11-18T23:25:49.313Z,19.15
2023-11-18T23:28:18.085Z,18.15
2023-11-18T23:30:47.517Z,25.20
2023-11-18T23:33:15.350Z,20.20
2023-11-18T23:35:44.321Z,24.10
2023-11-18T23:38:12.089Z,23.65
2023-11-18T23:40:42.305Z,33.20
2023-11-18T23:43:10.136Z,23.17
2023-11-18T23:45:37.941Z,21.40
2023-11-18T23:48:09.768Z,29.02
2023-11-18T23:50:38.241Z,33.40
2023-11-18T23:53:06.036Z,31.40
2023-11-18T23:55:33.838Z,29.52
2023-11-18T23:58:02.029Z,32.45
